Deeth, Nevada
Current Conditions -  °F | °C
As of 9:56 AM on Saturday 25 Oct 2014 (Local Time) from KEKO Reporting Station
Haze Haze  
Wind Chill: 66°   Ceiling: Unl
Heat Index: 66°   Visibility: 4mi
Dew Point: 31°   Wind: 25mph
Humidity: 27%   Direction: 190°S
Pressure: 29.97"   Gusts: 41mph
Location:  41.07°N, 115.28°W
Report Text: KEKO 251656Z AUTO 19022G36KT 4SM HZ CLR 19/M01 A2997 RMK AO2 PK WND 19037/1645 SLP103 T01891006
Loading
Personal Weather Stations






























Interactive Weather Map
Tropical Storm Tracking
New forecast layout! Learn more

10-Day Weather Forecast

Advertisements
Track Severe Weather on mobile